createdAt,value
2023-04-08T00:00:18.136Z,55.55
2023-04-08T00:03:03.346Z,55.73
2023-04-08T00:05:47.905Z,56.10
2023-04-08T00:08:32.760Z,56.07
2023-04-08T00:11:17.522Z,56.00
2023-04-08T00:14:02.506Z,57.08
2023-04-08T00:16:47.354Z,56.59
2023-04-08T00:19:33.530Z,56.80
2023-04-08T00:22:19.381Z,56.81
2023-04-08T00:25:04.282Z,57.20
2023-04-08T00:27:49.223Z,57.36
2023-04-08T00:30:34.060Z,56.65
2023-04-08T00:33:18.965Z,56.59
2023-04-08T00:36:03.775Z,56.78
2023-04-08T00:38:48.722Z,56.46
2023-04-08T00:41:33.884Z,56.50
2023-04-08T00:44:18.843Z,56.25
2023-04-08T00:47:03.894Z,56.15
2023-04-08T00:49:48.720Z,56.24
2023-04-08T00:52:33.731Z,56.55
2023-04-08T00:55:18.496Z,56.63
2023-04-08T00:58:03.522Z,56.44
2023-04-08T01:00:48.485Z,56.49
2023-04-08T01:03:33.388Z,56.91
2023-04-08T01:06:18.258Z,57.00
2023-04-08T01:09:07.158Z,56.67
2023-04-08T01:11:51.801Z,57.08
2023-04-08T01:14:36.704Z,56.74
2023-04-08T01:17:21.648Z,56.76
2023-04-08T01:20:06.444Z,56.76
2023-04-08T01:22:51.353Z,56.65
2023-04-08T01:25:36.356Z,57.32
2023-04-08T01:28:21.054Z,56.73
2023-04-08T01:31:06.085Z,56.87
2023-04-08T01:33:51.203Z,57.37
2023-04-08T01:36:36.153Z,56.66
2023-04-08T01:39:21.046Z,56.57
2023-04-08T01:42:05.940Z,56.94
2023-04-08T01:44:50.864Z,57.14
2023-04-08T01:47:35.798Z,57.04
2023-04-08T01:50:20.663Z,57.38
2023-04-08T01:53:05.510Z,57.57
2023-04-08T01:55:50.429Z,57.84
2023-04-08T01:58:35.182Z,56.57
2023-04-08T02:01:20.155Z,56.30
2023-04-08T02:04:04.915Z,56.66
2023-04-08T02:06:49.981Z,56.65
2023-04-08T02:09:34.924Z,56.16
2023-04-08T02:12:19.908Z,55.95
2023-04-08T02:15:04.841Z,55.90
2023-04-08T02:17:49.758Z,55.83
2023-04-08T02:20:34.652Z,56.08
2023-04-08T02:23:19.535Z,56.00
2023-04-08T02:26:04.450Z,56.30
2023-04-08T02:28:49.525Z,56.54
2023-04-08T02:31:34.646Z,56.06
2023-04-08T02:34:19.536Z,56.15
2023-04-08T02:37:04.389Z,56.10
2023-04-08T02:39:49.439Z,55.68
2023-04-08T02:42:34.367Z,55.59
2023-04-08T02:45:19.425Z,55.70
2023-04-08T02:48:04.483Z,55.66
2023-04-08T02:50:49.347Z,55.50
2023-04-08T02:53:34.215Z,55.07
2023-04-08T02:56:19.094Z,55.40
2023-04-08T02:59:03.956Z,55.40
2023-04-08T03:01:49.021Z,54.75
2023-04-08T03:04:33.935Z,55.23
2023-04-08T03:07:18.800Z,54.76
2023-04-08T03:10:03.806Z,54.52
2023-04-08T03:12:48.762Z,54.65
2023-04-08T03:15:33.768Z,54.28
2023-04-08T03:18:18.627Z,54.21
2023-04-08T03:21:03.574Z,53.84
2023-04-08T03:23:48.589Z,53.50
2023-04-08T03:26:33.616Z,53.00
2023-04-08T03:29:18.528Z,53.08
2023-04-08T03:32:03.466Z,53.27
2023-04-08T03:34:48.324Z,52.30
2023-04-08T03:37:33.223Z,52.77
2023-04-08T03:40:18.216Z,53.53
2023-04-08T03:43:03.208Z,54.08
2023-04-08T03:45:48.163Z,53.35
2023-04-08T03:48:33.064Z,53.41
2023-04-08T03:51:17.932Z,52.80
2023-04-08T03:54:02.720Z,52.91
2023-04-08T03:56:47.361Z,52.70
2023-04-08T03:59:32.174Z,52.68
2023-04-08T04:02:17.087Z,52.62
2023-04-08T04:05:02.056Z,52.82
2023-04-08T04:07:46.812Z,52.11
2023-04-08T04:10:31.754Z,52.44
2023-04-08T04:13:16.665Z,52.00
2023-04-08T04:16:01.654Z,52.45
2023-04-08T04:18:46.636Z,51.95
2023-04-08T04:21:31.459Z,52.05
2023-04-08T04:24:16.438Z,51.94
2023-04-08T04:27:01.311Z,51.93
2023-04-08T04:29:46.131Z,51.79
2023-04-08T04:32:31.024Z,52.32
2023-04-08T04:35:15.906Z,52.74
2023-04-08T04:38:00.912Z,52.80
2023-04-08T04:40:45.895Z,53.10
2023-04-08T04:43:30.966Z,53.01
2023-04-08T04:46:15.679Z,52.21
2023-04-08T04:49:00.483Z,52.36
2023-04-08T04:51:45.492Z,52.56
2023-04-08T04:54:30.487Z,52.21
2023-04-08T04:57:15.412Z,52.27
2023-04-08T05:00:01.010Z,53.09
2023-04-08T05:02:47.074Z,52.83
2023-04-08T05:05:31.835Z,53.52
2023-04-08T05:08:16.842Z,53.37
2023-04-08T05:11:01.764Z,53.46
2023-04-08T05:13:46.658Z,53.48
2023-04-08T05:16:31.529Z,53.34
2023-04-08T05:19:16.416Z,53.78
2023-04-08T05:22:01.445Z,53.42
2023-04-08T05:24:46.216Z,53.77
2023-04-08T05:27:31.226Z,54.49
2023-04-08T05:30:15.998Z,54.37
2023-04-08T05:33:01.070Z,54.03
2023-04-08T05:35:45.876Z,53.81
2023-04-08T05:38:30.786Z,54.11
2023-04-08T05:41:15.646Z,54.13
2023-04-08T05:44:00.666Z,53.55
2023-04-08T05:46:45.628Z,52.92
2023-04-08T05:49:30.334Z,52.27
2023-04-08T05:52:15.273Z,52.06
2023-04-08T05:55:00.136Z,51.68
2023-04-08T05:57:45.044Z,50.47
2023-04-08T06:00:29.934Z,51.10
2023-04-08T06:03:15.848Z,51.56
2023-04-08T06:06:02.119Z,52.87
2023-04-08T06:08:47.105Z,52.67
2023-04-08T06:11:31.931Z,54.29
2023-04-08T06:14:16.907Z,53.97
2023-04-08T06:17:01.984Z,52.88
2023-04-08T06:19:46.789Z,53.65
2023-04-08T06:22:32.096Z,52.46
2023-04-08T06:25:16.992Z,51.53
2023-04-08T06:28:01.613Z,52.29
2023-04-08T06:30:46.609Z,50.55
2023-04-08T06:33:31.407Z,51.52
2023-04-08T06:36:16.358Z,50.29
2023-04-08T06:39:01.106Z,50.15
2023-04-08T06:41:46.287Z,49.28
2023-04-08T06:44:30.810Z,49.86
2023-04-08T06:47:15.855Z,50.09
2023-04-08T06:50:00.700Z,50.63
2023-04-08T06:52:45.686Z,50.32
2023-04-08T06:55:30.533Z,48.97
2023-04-08T06:58:15.286Z,49.40
2023-04-08T07:01:00.211Z,49.62
2023-04-08T07:03:45.159Z,49.58
2023-04-08T07:06:29.944Z,50.46
2023-04-08T07:09:14.635Z,49.39
2023-04-08T07:11:59.763Z,47.96
2023-04-08T07:14:44.363Z,47.78
2023-04-08T07:17:29.393Z,48.35
2023-04-08T07:20:14.149Z,45.88
2023-04-08T07:22:58.987Z,44.96
2023-04-08T07:25:44.010Z,46.78
2023-04-08T07:28:28.810Z,46.46
2023-04-08T07:31:13.804Z,47.29
2023-04-08T07:33:58.662Z,48.83
2023-04-08T07:36:43.568Z,46.93
2023-04-08T07:39:28.420Z,48.98
2023-04-08T07:42:13.316Z,48.27
2023-04-08T07:44:58.359Z,49.24
2023-04-08T07:47:43.170Z,48.18
2023-04-08T07:50:28.252Z,48.82
2023-04-08T07:53:13.136Z,49.40
2023-04-08T07:55:57.965Z,48.16
2023-04-08T07:58:42.841Z,49.86
2023-04-08T08:01:27.729Z,49.65
2023-04-08T08:04:12.690Z,50.06
2023-04-08T08:06:58.157Z,48.94
2023-04-08T08:09:43.244Z,49.30
2023-04-08T08:12:28.487Z,48.73
2023-04-08T08:15:13.515Z,49.08
2023-04-08T08:17:58.321Z,47.82
2023-04-08T08:20:43.563Z,48.42
2023-04-08T08:23:28.219Z,49.25
2023-04-08T08:26:13.256Z,47.44
2023-04-08T08:28:57.917Z,48.12
2023-04-08T08:31:42.968Z,47.63
2023-04-08T08:34:27.883Z,48.29
2023-04-08T08:37:12.829Z,47.77
2023-04-08T08:39:57.804Z,46.79
2023-04-08T08:42:43.256Z,46.77
2023-04-08T08:45:28.194Z,46.93
2023-04-08T08:48:13.082Z,47.38
2023-04-08T08:50:57.973Z,47.23
2023-04-08T08:53:43.099Z,45.71
2023-04-08T08:56:28.095Z,46.51
2023-04-08T08:59:13.721Z,45.59
2023-04-08T09:02:00.418Z,46.53
2023-04-08T09:04:46.278Z,44.20
2023-04-08T09:07:31.233Z,43.96
2023-04-08T09:10:17.244Z,44.62
2023-04-08T09:13:05.775Z,43.66
2023-04-08T09:15:52.703Z,44.70
2023-04-08T09:18:37.361Z,45.53
2023-04-08T09:21:22.501Z,45.25
2023-04-08T09:24:07.648Z,42.90
2023-04-08T09:26:52.487Z,43.30
2023-04-08T09:29:39.702Z,44.08
2023-04-08T09:32:25.167Z,43.36
2023-04-08T09:35:10.073Z,40.75
2023-04-08T09:37:54.871Z,42.87
2023-04-08T09:40:39.818Z,41.21
2023-04-08T09:43:24.819Z,40.10
2023-04-08T09:46:09.713Z,40.50
2023-04-08T09:48:54.805Z,39.95
2023-04-08T09:51:40.333Z,38.87
2023-04-08T09:54:25.247Z,38.71
2023-04-08T09:57:10.104Z,38.65
2023-04-08T09:59:55.086Z,38.46
2023-04-08T10:02:39.974Z,38.90
2023-04-08T10:05:24.744Z,38.23
2023-04-08T10:08:09.511Z,36.18
2023-04-08T10:10:54.450Z,42.35
2023-04-08T10:13:39.366Z,40.99
2023-04-08T10:16:24.232Z,39.20
2023-04-08T10:19:09.128Z,40.03
2023-04-08T10:21:54.095Z,39.44
2023-04-08T10:24:38.967Z,40.00
2023-04-08T10:27:23.723Z,39.24
2023-04-08T10:30:08.719Z,37.21
2023-04-08T10:32:53.792Z,38.66
2023-04-08T10:35:38.954Z,36.42
2023-04-08T10:38:23.998Z,37.91
2023-04-08T10:41:08.957Z,38.98
2023-04-08T10:43:53.746Z,36.76
2023-04-08T10:46:38.857Z,36.31
2023-04-08T10:49:23.481Z,37.19
2023-04-08T10:52:08.378Z,38.71
2023-04-08T10:54:53.349Z,36.29
2023-04-08T10:57:38.263Z,34.86
2023-04-08T11:00:23.113Z,35.53
2023-04-08T11:03:08.343Z,34.41
2023-04-08T11:05:53.720Z,33.76
2023-04-08T11:08:39.823Z,35.75
2023-04-08T11:11:24.636Z,34.64
2023-04-08T11:14:09.454Z,33.24
2023-04-08T11:16:54.240Z,34.75
2023-04-08T11:19:38.957Z,36.09
2023-04-08T11:22:23.570Z,35.83
2023-04-08T11:25:08.420Z,37.84
2023-04-08T11:27:53.331Z,37.24
2023-04-08T11:30:38.468Z,38.13
2023-04-08T11:33:23.580Z,37.34
2023-04-08T11:36:08.612Z,36.51
2023-04-08T11:38:53.565Z,37.52
2023-04-08T11:41:38.371Z,36.48
2023-04-08T11:44:23.277Z,36.08
2023-04-08T11:47:08.008Z,37.60
2023-04-08T11:49:52.908Z,36.72
2023-04-08T11:52:37.824Z,37.81
2023-04-08T11:55:22.427Z,37.71
2023-04-08T11:58:07.530Z,39.20
2023-04-08T12:00:52.532Z,37.40
2023-04-08T12:03:37.524Z,37.49
2023-04-08T12:06:22.174Z,36.90
2023-04-08T12:09:07.247Z,37.69
2023-04-08T12:11:52.071Z,37.36
2023-04-08T12:14:37.057Z,36.34
2023-04-08T12:17:22.038Z,37.41
2023-04-08T12:20:06.900Z,37.48
2023-04-08T12:22:51.815Z,36.99
2023-04-08T12:25:36.684Z,36.82
2023-04-08T12:28:24.274Z,37.43
2023-04-08T12:31:09.198Z,36.29
2023-04-08T12:33:54.012Z,36.40
2023-04-08T12:36:40.576Z,37.58
2023-04-08T12:39:26.663Z,35.08
2023-04-08T12:42:11.543Z,35.06
2023-04-08T12:44:56.495Z,34.43
2023-04-08T12:47:41.451Z,36.36
2023-04-08T12:50:26.283Z,34.78
2023-04-08T12:53:11.119Z,34.89
2023-04-08T12:55:56.217Z,33.14
2023-04-08T12:58:41.091Z,34.85
2023-04-08T13:01:26.248Z,33.74
2023-04-08T13:04:10.993Z,35.74
2023-04-08T13:06:55.924Z,36.25
2023-04-08T13:09:40.813Z,34.93
2023-04-08T13:12:25.590Z,33.92
2023-04-08T13:15:10.563Z,34.31
2023-04-08T13:17:55.470Z,33.06
2023-04-08T13:20:40.397Z,34.09
2023-04-08T13:23:25.360Z,33.05
2023-04-08T13:26:10.261Z,33.10
2023-04-08T13:29:00.779Z,33.74
2023-04-08T13:31:45.933Z,31.79
2023-04-08T13:34:30.935Z,32.92
2023-04-08T13:37:15.744Z,31.93
2023-04-08T13:40:00.611Z,31.98
2023-04-08T13:42:45.549Z,32.66
2023-04-08T13:45:30.342Z,31.53
2023-04-08T13:48:15.247Z,32.19
2023-04-08T13:51:00.057Z,32.52
2023-04-08T13:53:45.043Z,32.47
2023-04-08T13:56:29.903Z,32.06
2023-04-08T13:59:14.674Z,31.84
2023-04-08T14:01:59.697Z,31.12
2023-04-08T14:04:44.670Z,31.14
2023-04-08T14:07:29.607Z,33.01
2023-04-08T14:10:14.549Z,32.83
2023-04-08T14:12:59.386Z,32.48
2023-04-08T14:15:44.216Z,32.82
2023-04-08T14:18:29.117Z,31.27
2023-04-08T14:21:13.917Z,31.74
2023-04-08T14:24:01.267Z,30.92
2023-04-08T14:26:47.298Z,30.47
2023-04-08T14:29:32.165Z,32.17
2023-04-08T14:32:18.116Z,30.97
2023-04-08T14:35:05.218Z,31.58
2023-04-08T14:37:52.719Z,30.67
2023-04-08T14:40:37.993Z,31.13
2023-04-08T14:43:23.792Z,30.41
2023-04-08T14:46:13.403Z,29.92
2023-04-08T14:48:58.764Z,31.72
2023-04-08T14:51:43.574Z,31.79
2023-04-08T14:54:28.375Z,31.00
2023-04-08T14:57:14.999Z,30.24
2023-04-08T15:00:00.640Z,31.25
2023-04-08T15:02:45.401Z,30.32
2023-04-08T15:05:30.092Z,31.22
2023-04-08T15:08:14.988Z,30.65
2023-04-08T15:10:59.850Z,30.18
2023-04-08T15:13:45.882Z,29.81
2023-04-08T15:16:30.629Z,29.29
2023-04-08T15:19:22.035Z,30.15
2023-04-08T15:22:06.754Z,30.13
2023-04-08T15:24:56.897Z,30.33
2023-04-08T15:27:41.881Z,31.54
2023-04-08T15:30:26.591Z,32.03
2023-04-08T15:33:11.703Z,32.25
2023-04-08T15:35:56.625Z,31.97
2023-04-08T15:38:41.555Z,31.38
2023-04-08T15:41:26.602Z,31.35
2023-04-08T15:44:11.680Z,32.41
2023-04-08T15:46:56.599Z,31.45
2023-04-08T15:49:41.486Z,32.54
2023-04-08T15:52:26.330Z,32.51
2023-04-08T15:55:11.253Z,32.67
2023-04-08T15:57:56.203Z,32.62
2023-04-08T16:00:41.057Z,31.65
2023-04-08T16:03:25.924Z,31.56
2023-04-08T16:06:14.981Z,31.83
2023-04-08T16:08:59.584Z,33.13
2023-04-08T16:11:44.498Z,34.75
2023-04-08T16:14:29.301Z,35.16
2023-04-08T16:17:14.150Z,35.12
2023-04-08T16:19:59.054Z,35.33
2023-04-08T16:22:43.824Z,35.46
2023-04-08T16:25:28.648Z,35.68
2023-04-08T16:28:13.636Z,35.22
2023-04-08T16:30:58.476Z,35.41
2023-04-08T16:33:43.332Z,35.62
2023-04-08T16:36:28.273Z,36.04
2023-04-08T16:39:13.075Z,35.79
2023-04-08T16:41:58.015Z,36.01
2023-04-08T16:44:42.718Z,35.61
2023-04-08T16:47:27.861Z,36.91
2023-04-08T16:50:12.776Z,37.07
2023-04-08T16:52:59.059Z,36.85
2023-04-08T16:55:43.771Z,36.85
2023-04-08T16:58:28.519Z,36.68
2023-04-08T17:01:13.584Z,37.15
2023-04-08T17:03:58.672Z,36.83
2023-04-08T17:06:43.396Z,36.51
2023-04-08T17:09:28.199Z,36.73
2023-04-08T17:12:13.187Z,36.29
2023-04-08T17:14:58.116Z,35.98
2023-04-08T17:17:43.173Z,36.38
2023-04-08T17:20:28.072Z,36.53
2023-04-08T17:23:13.040Z,36.87
2023-04-08T17:25:58.056Z,36.73
2023-04-08T17:28:42.821Z,37.16
2023-04-08T17:31:27.783Z,36.80
2023-04-08T17:34:12.539Z,37.44
2023-04-08T17:36:57.352Z,37.23
2023-04-08T17:39:42.203Z,36.94
2023-04-08T17:42:27.153Z,37.58
2023-04-08T17:45:12.144Z,37.55
2023-04-08T17:47:56.969Z,37.33
2023-04-08T17:50:41.865Z,37.43
2023-04-08T17:53:26.695Z,38.24
2023-04-08T17:56:11.818Z,38.59
2023-04-08T17:58:56.474Z,38.45
2023-04-08T18:01:41.706Z,38.76
2023-04-08T18:04:26.432Z,38.26
2023-04-08T18:07:11.392Z,38.65
2023-04-08T18:09:56.379Z,37.82
2023-04-08T18:12:41.369Z,38.09
2023-04-08T18:15:26.503Z,38.18
2023-04-08T18:18:11.299Z,38.92
2023-04-08T18:20:56.272Z,38.15
2023-04-08T18:23:41.139Z,38.72
2023-04-08T18:26:26.156Z,38.36
2023-04-08T18:29:11.111Z,38.50
2023-04-08T18:31:56.068Z,38.12
2023-04-08T18:34:41.140Z,38.33
2023-04-08T18:37:26.119Z,38.67
2023-04-08T18:40:11.172Z,38.67
2023-04-08T18:42:55.932Z,39.71
2023-04-08T18:45:40.888Z,39.58
2023-04-08T18:48:25.806Z,40.27
2023-04-08T18:51:10.759Z,40.13
2023-04-08T18:53:56.967Z,41.18
2023-04-08T18:56:41.849Z,41.46
2023-04-08T18:59:26.763Z,41.34
2023-04-08T19:02:11.604Z,42.07
2023-04-08T19:04:56.552Z,42.23
2023-04-08T19:07:41.263Z,42.38
2023-04-08T19:10:26.072Z,42.51
2023-04-08T19:13:10.984Z,42.73
2023-04-08T19:15:56.055Z,42.91
2023-04-08T19:18:41.314Z,42.67
2023-04-08T19:21:25.941Z,42.69
2023-04-08T19:24:10.978Z,42.97
2023-04-08T19:26:55.811Z,43.73
2023-04-08T19:29:40.787Z,44.11
2023-04-08T19:32:25.725Z,43.88
2023-04-08T19:35:10.645Z,43.52
2023-04-08T19:37:55.518Z,43.76
2023-04-08T19:40:40.330Z,43.67
2023-04-08T19:43:25.480Z,43.81
2023-04-08T19:46:10.255Z,43.73
2023-04-08T19:48:55.164Z,44.41
2023-04-08T19:51:40.109Z,44.75
2023-04-08T19:54:25.029Z,44.97
2023-04-08T19:57:09.900Z,44.50
2023-04-08T19:59:54.702Z,44.37
2023-04-08T20:02:39.808Z,44.46
2023-04-08T20:05:24.515Z,44.68
2023-04-08T20:08:09.487Z,44.60
2023-04-08T20:10:54.458Z,44.72
2023-04-08T20:13:39.503Z,44.92
2023-04-08T20:16:24.387Z,44.92
2023-04-08T20:19:09.309Z,45.07
2023-04-08T20:21:54.193Z,45.29
2023-04-08T20:24:39.571Z,45.50
2023-04-08T20:27:24.526Z,45.09
2023-04-08T20:30:09.562Z,44.97
2023-04-08T20:32:54.695Z,45.25
2023-04-08T20:35:39.463Z,45.39
2023-04-08T20:38:24.284Z,45.95
2023-04-08T20:41:09.148Z,47.18
2023-04-08T20:43:54.054Z,47.37
2023-04-08T20:46:38.978Z,47.22
2023-04-08T20:49:23.719Z,46.84
2023-04-08T20:52:08.818Z,47.18
2023-04-08T20:54:53.856Z,46.75
2023-04-08T20:57:39.829Z,46.83
2023-04-08T21:00:24.757Z,46.91
2023-04-08T21:03:09.790Z,46.90
2023-04-08T21:05:54.572Z,47.11
2023-04-08T21:08:39.480Z,47.00
2023-04-08T21:11:24.216Z,47.26
2023-04-08T21:14:09.097Z,47.31
2023-04-08T21:16:54.036Z,47.17
2023-04-08T21:19:38.981Z,47.30
2023-04-08T21:22:24.014Z,47.13
2023-04-08T21:25:08.944Z,47.12
2023-04-08T21:27:53.826Z,47.23
2023-04-08T21:30:38.836Z,47.41
2023-04-08T21:33:23.618Z,48.02
2023-04-08T21:36:08.454Z,47.76
2023-04-08T21:38:53.712Z,47.11
2023-04-08T21:41:38.839Z,46.85
2023-04-08T21:44:23.783Z,46.87
2023-04-08T21:47:08.821Z,46.94
2023-04-08T21:49:53.657Z,46.56
2023-04-08T21:52:39.332Z,46.63
2023-04-08T21:55:25.250Z,46.47
2023-04-08T21:58:10.177Z,46.46
2023-04-08T22:00:55.148Z,46.82
2023-04-08T22:03:39.949Z,46.96
2023-04-08T22:06:31.974Z,46.98
2023-04-08T22:09:17.782Z,46.65
2023-04-08T22:12:02.457Z,46.55
2023-04-08T22:14:47.534Z,46.73
2023-04-08T22:17:32.338Z,46.60
2023-04-08T22:20:17.236Z,46.54
2023-04-08T22:23:02.134Z,46.47
2023-04-08T22:25:46.854Z,46.82
2023-04-08T22:28:31.702Z,46.99
2023-04-08T22:31:16.616Z,47.30
2023-04-08T22:34:01.614Z,47.20
2023-04-08T22:36:46.389Z,47.58
2023-04-08T22:39:31.260Z,47.98
2023-04-08T22:42:16.166Z,47.87
2023-04-08T22:45:01.084Z,47.91
2023-04-08T22:47:45.980Z,47.99
2023-04-08T22:50:30.729Z,48.17
2023-04-08T22:53:15.713Z,48.66
2023-04-08T22:56:00.662Z,49.01
2023-04-08T22:58:45.594Z,49.09
2023-04-08T23:01:30.519Z,49.04
2023-04-08T23:04:15.694Z,49.05
2023-04-08T23:07:00.582Z,48.93
2023-04-08T23:09:45.580Z,48.82
2023-04-08T23:12:30.504Z,48.96
2023-04-08T23:15:15.349Z,49.07
2023-04-08T23:18:00.400Z,49.28
2023-04-08T23:20:45.289Z,49.46
2023-04-08T23:23:30.180Z,49.37
2023-04-08T23:26:15.029Z,49.20
2023-04-08T23:29:00.127Z,49.02
2023-04-08T23:31:44.872Z,49.19
2023-04-08T23:34:29.745Z,48.92
2023-04-08T23:37:14.513Z,49.04
2023-04-08T23:39:59.384Z,49.28
2023-04-08T23:42:44.401Z,49.58
2023-04-08T23:45:29.341Z,49.37
2023-04-08T23:48:14.273Z,49.58
2023-04-08T23:50:59.161Z,50.02
2023-04-08T23:53:44.080Z,50.03
2023-04-08T23:56:29.019Z,49.92
2023-04-08T23:59:13.887Z,49.85
